Sharon, Georgia
Current Conditions -  °F | °C
As of 7:15 AM on Saturday 20 Dec 2014 (Local Time) from KIIY Reporting Station
Light Rain Light Rain  
Wind Chill: 46°   Ceiling: NA
Heat Index: 46°   Visibility: 3mi
Dew Point: 46°   Wind: 0mph
Humidity: 100%   Direction: NA
Pressure: 30.18"   Gusts: NA
Location:  33.56°N, 82.79°W
Report Text: KIIY 201215Z AUTO 00000KT 3SM -RA 08/08 A3018 RMK AO2 SKY OBSCURED
Loading
Personal Weather Stations






























Interactive Weather Map New forecast layout! Learn more

10-Day Weather Forecast

Advertisements
Track Severe Weather on mobile